Date,TemperatureHighF,TemperatureAvgF,TemperatureLowF,DewpointHighF,DewpointAvgF,DewpointLowF,HumidityHigh,HumidityAvg,HumidityLow,PressureMaxIn,PressureMinIn,WindSpeedMaxMPH,WindSpeedAvgMPH,GustSpeedMaxMPH,PrecipitationSumIn
2014-1-1,22.3,18.1,13.3,19.1,15.7,11.4,92,90,87,30.00,29.91,11,5,0,0.00
2014-1-2,16.9,10.3,0.9,12.8,7.8,-1.1,92,90,80,30.23,29.92,10,3,0,0.00
2014-1-3,20.7,10.4,-3.5,16.4,6.3,-5.5,92,84,71,30.24,29.68,15,4,0,0.00
2014-1-4,35.6,27.3,20.7,28.3,21.5,16.1,92,79,63,29.77,29.62,14,4,0,0.01
2014-1-5,23.2,10.6,-7.2,21.5,7.9,-12.2,93,88,77,30.01,29.76,14,3,0,0.04
2014-1-6,-6.2,-11.0,-16.4,-11.9,-16.4,-21.4,83,76,66,30.16,30.00,9,4,0,0.00
2014-1-7,10.6,0.7,-10.7,4.5,-4.5,-14.1,91,79,61,30.15,29.99,6,2,0,0.00
2014-1-8,19.4,8.7,1.2,8.9,3.2,-0.8,91,78,61,30.29,30.03,5,1,0,0.00
2014-1-9,29.1,18.2,8.4,28.1,14.8,2.4,96,86,76,30.28,29.91,6,2,0,0.00
2014-1-10,39.9,34.8,29.1,39.1,33.8,28.1,97,96,93,29.91,29.26,10,4,0,0.71
2014-1-11,40.1,34.1,29.3,37.7,30.8,25.4,97,88,71,29.63,29.23,7,3,0,0.01
2014-1-12,46.6,37.7,26.8,35.6,30.8,24.8,93,77,63,29.65,29.35,12,5,0,0.00
2014-1-13,46.9,37.1,27.3,36.8,31.0,24.2,88,79,67,29.59,29.32,10,2,0,0.00
2014-1-14,36.0,29.0,21.2,32.2,23.6,15.0,93,80,67,29.77,29.43,11,5,0,0.03
2014-1-15,23.4,17.9,11.7,15.1,11.1,7.0,82,74,65,29.94,29.65,9,3,0,0.00
2014-1-16,41.2,28.5,13.8,33.4,23.3,10.4,91,81,68,29.64,29.31,12,5,0,0.00
2014-1-17,17.1,10.8,4.5,11.2,7.2,2.2,91,85,75,29.82,29.57,9,3,0,0.00
2014-1-18,26.6,17.5,7.2,23.5,14.8,5.1,92,89,80,29.77,29.38,8,2,0,0.00
2014-1-19,42.4,28.3,12.2,32.2,22.6,10.3,93,80,66,29.72,29.37,14,4,0,0.08
2014-1-20,38.7,32.1,15.8,32.0,28.1,13.9,93,86,74,29.81,29.44,8,2,0,0.00
2014-1-21,15.4,5.1,0.0,13.5,1.4,-2.5,92,85,72,30.16,29.83,10,3,0,0.00
2014-1-22,22.3,10.2,-0.9,14.7,5.1,-6.9,87,79,70,30.10,29.73,11,3,0,0.00
2014-1-23,7.3,-1.2,-6.0,-2.0,-7.3,-10.8,86,75,61,30.47,30.10,9,4,0,0.00
2014-1-24,29.8,14.5,-4.4,25.2,5.7,-7.7,87,69,51,30.40,29.33,18,7,0,0.00
2014-1-25,33.4,21.2,9.1,29.9,10.6,-0.1,89,64,41,29.72,29.29,14,5,0,0.00
2014-1-26,42.6,27.4,4.8,32.7,18.2,-4.0,90,68,55,29.79,29.21,13,5,0,0.00
2014-1-27,5.2,0.1,-5.1,-1.2,-7.8,-11.8,84,69,53,30.28,29.80,14,5,0,0.00
2014-1-28,13.3,2.5,-8.5,-0.2,-5.0,-11.6,88,71,51,30.28,30.07,7,2,0,0.00
2014-1-29,29.8,16.9,2.8,11.5,4.8,-1.9,82,60,41,30.07,29.76,11,4,0,0.00
2014-1-30,33.4,26.6,18.9,29.0,18.0,9.0,89,71,45,29.77,29.43,22,7,0,0.00
2014-1-31,22.8,17.8,15.4,17.6,14.3,11.2,92,86,79,29.96,29.78,6,2,0,0.00
2014-2-1,29.7,22.5,17.8,27.7,20.6,15.9,93,93,91,29.91,29.61,7,3,0,0.00
2014-2-2,18.7,10.1,-1.1,16.5,6.2,-3.1,92,84,69,30.12,29.91,7,2,0,0.00
2014-2-3,26.8,7.2,-7.2,9.3,0.4,-9.1,93,76,44,30.19,30.11,3,0,0,0.00
2014-2-4,19.4,13.6,5.9,17.7,9.4,2.1,93,84,65,30.18,29.83,9,3,0,0.00
2014-2-5,23.2,15.8,1.0,19.8,13.5,-1.2,93,90,85,30.31,29.79,12,4,0,0.00
2014-2-6,15.1,0.1,-8.5,1.4,-4.9,-10.4,92,80,53,30.34,30.24,6,1,0,0.00
2014-2-7,25.0,5.8,-6.0,4.7,-1.5,-8.4,89,73,41,30.25,30.12,7,2,0,0.00
2014-2-8,21.4,15.2,9.1,15.9,11.6,2.4,92,85,72,30.12,29.90,5,1,0,0.00
2014-2-9,21.6,12.9,-1.3,15.9,9.0,-4.9,93,84,66,30.16,29.90,6,2,0,0.00
2014-2-10,13.8,-0.9,-9.8,-1.5,-6.5,-11.9,91,77,49,30.30,30.15,7,2,0,0.00
2014-2-11,26.1,2.8,-12.5,3.6,-4.7,-14.8,92,73,37,30.33,30.12,5,1,0,0.00
2014-2-12,30.0,14.8,-2.0,12.5,6.2,-4.0,92,70,36,30.13,29.78,7,1,0,0.00
2014-2-13,15.4,13.9,12.4,10.4,9.0,7.9,83,80,75,29.78,29.68,5,1,0,0.00
2014-2-14,17.6,10.1,5.4,12.8,6.9,2.9,90,87,81,29.79,29.63,5,1,0,0.00
2014-2-15,22.8,11.7,-0.9,16.9,7.2,-2.8,92,82,56,29.91,29.72,8,2,0,0.00
2014-2-16,33.1,21.0,14.2,19.7,15.9,12.3,93,81,56,30.03,29.72,6,1,0,0.01
2014-2-17,33.3,26.7,19.4,30.4,24.0,15.6,93,90,85,29.98,29.49,7,4,0,0.00
2014-2-18,48.6,37.9,25.5,33.2,29.8,23.2,91,74,54,29.73,29.43,13,5,0,0.60
2014-2-19,47.5,37.1,28.2,33.2,30.2,26.2,92,77,52,29.76,29.49,8,1,0,0.00
2014-2-20,54.0,37.4,34.0,52.0,34.6,29.7,97,90,78,29.61,28.94,18,5,0,0.94
2014-2-21,41.9,32.9,26.1,29.4,23.6,18.9,91,70,47,29.66,29.25,12,4,0,0.00
2014-2-22,41.2,30.1,23.0,27.4,21.6,14.3,85,71,37,29.87,29.67,8,1,0,0.00
2014-2-23,30.7,21.7,17.2,17.2,12.2,9.2,75,67,55,30.11,29.88,9,2,0,0.00
2014-2-24,29.1,20.2,12.7,13.9,10.9,7.7,82,67,48,30.16,30.04,6,1,0,0.00
2014-2-25,24.4,15.1,6.8,14.3,8.2,-0.8,89,74,60,30.10,30.02,8,2,0,0.00
2014-2-26,19.4,9.8,-2.6,9.9,-0.2,-7.5,80,64,41,30.13,29.56,11,2,0,0.00
2014-2-27,19.4,8.6,0.7,10.6,-2.2,-7.1,72,61,44,29.98,29.56,9,2,0,0.00
2014-2-28,38.7,22.6,1.9,22.9,10.9,-4.7,75,61,44,29.96,29.71,8,2,0,0.00
2014-3-1,33.1,23.0,11.1,23.8,16.1,7.7,87,75,63,30.14,29.75,6,2,0,0.00
2014-3-2,13.1,6.7,-1.5,7.5,-0.1,-8.9,87,73,60,30.26,30.12,9,2,0,0.00
2014-3-3,33.3,7.5,-8.5,6.5,-4.0,-14.9,74,61,30,30.33,30.13,5,0,0,0.01
2014-3-4,37.2,21.4,8.4,14.7,9.7,1.8,77,62,38,30.15,29.93,6,1,0,0.07
2014-3-5,28.0,21.8,18.9,20.3,16.6,13.5,90,81,68,30.18,29.99,10,4,0,0.00
2014-3-6,36.3,23.2,15.6,22.5,17.0,12.4,92,78,57,30.16,29.86,9,2,0,0.08
2014-3-7,53.6,38.2,18.5,36.6,29.1,16.8,93,72,49,29.86,29.64,7,2,0,0.09
2014-3-8,36.0,32.5,25.3,31.6,28.7,24.1,95,86,72,30.07,29.76,10,2,0,0.15
2014-3-9,45.1,34.3,20.3,34.1,27.3,18.9,95,77,59,30.07,29.64,10,4,0,0.00
2014-3-10,59.7,48.2,39.9,44.4,37.3,30.9,78,66,54,29.64,29.46,8,2,0,0.00
2014-3-11,58.3,44.8,35.6,46.2,38.0,33.2,91,77,64,29.48,29.35,10,3,0,0.03
2014-3-12,38.8,31.4,24.6,32.9,28.7,22.6,96,90,73,29.90,29.43,11,0,0,0.15
2014-3-13,46.6,33.1,17.1,37.5,27.3,15.4,95,80,65,29.91,29.63,13,2,0,0.43
2014-3-14,60.1,46.0,34.3,40.9,34.9,30.6,88,66,46,29.72,29.43,11,4,0,0.00
2014-3-15,49.5,38.4,29.5,35.2,29.6,25.3,90,72,48,29.94,29.72,12,3,0,0.00
2014-3-16,30.9,25.5,19.0,26.4,17.4,12.4,89,72,52,30.08,29.93,15,7,0,0.00
2014-3-17,42.8,28.5,16.7,24.9,18.2,12.0,85,67,36,29.94,29.54,7,2,0,0.00
2014-3-18,54.5,41.4,31.5,42.6,34.0,23.8,88,75,62,29.59,29.35,11,4,0,0.00
2014-3-19,45.7,39.3,30.9,44.4,35.5,26.4,95,86,74,29.85,29.31,8,4,0,0.34
2014-3-20,55.2,40.1,27.3,35.9,30.8,24.5,89,71,46,29.85,29.73,6,2,0,0.00
2014-3-21,62.8,46.9,33.4,41.5,35.2,28.8,84,65,40,29.75,29.48,10,3,0,0.00
2014-3-22,42.1,35.6,27.1,30.7,26.1,18.0,80,69,49,30.14,29.74,11,4,0,0.00
2014-3-23,36.0,26.3,18.9,18.0,13.8,10.6,72,60,40,30.26,30.14,7,3,0,0.00
2014-3-24,41.2,29.4,19.2,20.6,16.1,10.7,76,59,40,30.18,29.90,5,1,0,0.00
2014-3-25,33.3,25.8,16.2,26.6,15.9,10.6,92,67,44,30.07,29.85,11,4,0,0.00
2014-3-26,45.3,30.1,12.9,23.7,16.4,8.1,85,59,37,30.12,29.74,11,3,0,0.00
2014-3-27,54.7,43.6,35.1,50.0,38.5,23.5,92,83,52,29.74,29.21,14,6,0,0.32
2014-3-28,48.4,40.9,37.6,39.9,35.5,33.4,92,81,67,29.95,29.30,12,3,0,0.00
2014-3-29,48.7,39.3,30.7,34.5,31.3,27.3,87,74,50,30.03,29.90,8,2,0,0.00
2014-3-30,61.9,45.2,28.4,40.8,34.2,25.2,95,67,44,30.04,29.77,10,3,0,0.00
2014-3-31,67.3,56.3,43.7,44.7,40.9,36.0,74,57,43,29.78,29.44,15,6,0,0.00
2014-4-1,55.9,43.8,29.8,45.5,30.1,20.7,72,59,43,29.87,29.49,8,4,0,0.00
2014-4-2,48.2,43.1,39.4,38.8,33.9,29.4,80,70,65,29.91,29.72,10,4,0,0.02
2014-4-3,49.5,42.9,37.9,47.0,41.0,32.5,98,93,74,29.73,29.33,11,5,0,3.27
2014-4-4,47.7,39.2,35.6,47.4,34.2,28.5,99,82,68,29.87,29.23,14,4,0,0.00
2014-4-5,55.0,42.6,28.4,33.7,29.6,24.7,86,62,39,30.01,29.88,6,1,0,0.00
2014-4-6,60.6,46.5,33.6,38.0,33.7,29.2,85,63,41,29.93,29.68,7,0,0,0.00
2014-4-7,60.4,49.0,39.6,44.9,36.4,32.1,87,63,37,29.68,29.39,8,1,0,0.01
2014-4-8,64.4,50.7,39.2,44.2,38.0,33.8,90,65,37,29.73,29.46,9,2,0,0.00
2014-4-9,68.2,52.1,35.1,38.3,33.9,30.7,84,53,27,29.85,29.63,11,2,0,0.00
2014-4-10,66.4,56.9,46.4,47.7,38.8,31.2,61,51,35,29.75,29.49,9,4,0,0.00
2014-4-11,75.6,58.0,38.7,35.9,31.8,28.6,68,40,21,29.85,29.72,6,1,0,0.00
2014-4-12,80.2,67.6,55.4,60.5,50.8,35.6,66,55,42,29.79,29.39,14,6,0,0.00
2014-4-13,71.1,64.8,60.4,62.2,57.6,53.8,93,78,65,29.49,29.12,19,4,0,0.37
2014-4-14,61.9,39.0,28.2,58.0,36.6,26.4,96,91,83,29.83,29.13,11,4,0,0.07
2014-4-15,45.7,33.4,22.6,28.5,22.9,18.7,96,68,38,29.97,29.82,6,1,0,0.14
2014-4-16,57.4,44.0,29.8,33.3,28.2,19.5,71,55,39,30.02,29.79,10,4,0,0.00
2014-4-17,59.7,50.5,41.9,42.7,37.6,31.8,71,61,52,30.05,29.85,8,2,0,0.00
2014-4-18,69.6,52.8,35.2,42.4,37.1,26.2,92,60,20,30.12,30.00,5,1,0,0.00
2014-4-19,75.7,56.7,36.3,39.1,35.1,28.8,82,49,25,30.11,29.92,7,3,0,0.00
2014-4-20,83.7,67.3,52.3,48.7,43.8,35.7,65,44,29,29.97,29.76,11,3,0,0.00
2014-4-21,76.1,65.6,56.8,60.6,54.0,46.3,92,67,49,29.77,29.59,6,2,0,0.02
2014-4-22,67.8,55.7,44.1,50.9,38.3,29.9,81,55,30,29.83,29.62,10,3,0,0.00
2014-4-23,65.7,49.1,36.7,42.9,34.6,30.7,79,60,30,29.95,29.73,9,3,0,0.06
2014-4-24,73.6,57.6,45.5,55.0,45.0,39.2,91,66,37,29.74,29.32,8,3,0,0.07
2014-4-25,76.8,60.5,44.4,51.9,46.6,42.1,96,65,29,29.65,29.36,10,2,0,0.05
2014-4-26,77.7,60.4,42.4,49.8,42.8,33.0,78,53,36,29.68,29.57,14,4,0,0.01
2014-4-27,73.9,56.7,42.6,60.1,49.1,34.6,96,77,47,29.69,29.40,11,3,0,0.48
2014-4-28,71.2,55.2,48.7,63.5,52.9,47.4,98,92,64,29.44,29.12,8,1,0,0.29
2014-4-29,57.9,53.1,50.0,52.0,47.8,44.5,99,83,66,29.43,29.17,11,2,0,0.05
2014-4-30,50.9,46.1,41.2,47.2,41.0,36.6,97,83,67,29.58,29.42,7,1,0,0.01
2014-5-1,53.2,45.9,41.4,44.5,41.8,39.0,93,86,71,29.65,29.50,7,1,0,0.01
2014-5-2,58.5,51.0,44.2,46.1,44.0,41.7,92,78,61,29.65,29.48,11,1,0,0.00
2014-5-3,74.8,59.7,45.5,47.3,43.1,39.5,87,58,32,29.69,29.49,6,1,0,0.00
2014-5-4,66.6,57.1,47.7,46.7,39.7,25.4,81,54,37,29.82,29.68,11,2,0,0.00
2014-5-5,71.8,57.4,45.7,46.8,38.7,25.9,68,50,38,29.75,29.57,13,3,0,0.00
2014-5-6,79.0,62.5,44.1,55.4,46.1,38.3,80,58,38,29.70,29.46,11,3,0,0.00
2014-5-7,89.1,75.3,66.9,70.2,62.3,55.6,81,65,45,29.53,29.42,10,2,0,0.02
2014-5-8,89.4,75.3,64.8,68.2,64.2,60.8,96,71,45,29.59,29.49,10,4,0,0.14
2014-5-9,76.6,66.5,54.0,64.2,57.1,45.8,98,74,44,29.64,29.44,8,2,0,0.05
2014-5-10,82.0,66.8,50.4,52.9,48.3,43.9,83,55,32,29.71,29.58,6,1,0,0.00
2014-5-11,89.1,70.9,59.7,71.7,61.9,49.5,95,74,54,29.68,29.56,8,1,0,0.27
2014-5-12,91.8,77.3,65.1,72.7,69.3,64.0,97,78,52,29.64,29.49,11,3,0,0.22
2014-5-13,65.1,55.5,47.8,64.5,52.7,44.7,99,91,80,29.97,29.58,6,1,0,0.12
2014-5-14,59.0,49.7,44.4,46.5,43.9,41.4,98,82,60,29.97,29.78,5,1,0,0.19
2014-5-15,61.5,49.0,42.3,48.3,45.4,41.5,99,89,58,29.80,29.72,4,0,0,0.51
2014-5-16,50.7,43.3,38.8,43.2,41.0,38.5,99,92,71,29.89,29.71,6,1,0,0.19
2014-5-17,68.2,50.9,36.9,45.9,37.7,33.4,99,66,29,29.98,29.88,3,0,0,0.00
2014-5-18,72.7,58.1,44.2,46.1,41.9,36.7,80,57,34,30.03,29.92,6,1,0,0.00
2014-5-19,76.1,63.1,48.7,60.8,52.0,43.6,90,68,51,29.97,29.61,7,2,0,0.03
2014-5-20,89.6,76.4,64.2,70.7,66.0,59.9,86,71,53,29.67,29.54,10,2,0,0.00
2014-5-21,94.3,79.7,68.9,72.8,67.0,54.3,88,67,47,29.73,29.56,4,0,0,0.00
2014-5-22,80.1,66.6,57.0,56.3,53.2,50.2,83,63,43,29.94,29.74,6,1,0,0.00
2014-5-23,82.9,67.6,50.5,57.4,51.4,48.0,92,60,33,29.94,29.85,6,1,0,0.00
2014-5-24,83.5,67.7,51.1,60.3,51.5,44.5,81,58,40,29.98,29.84,6,1,0,0.00
2014-5-25,85.1,72.6,56.8,63.9,57.6,47.9,84,61,44,29.88,29.73,4,0,0,0.00
2014-5-26,91.4,75.3,64.0,71.7,65.7,58.5,90,74,48,29.79,29.64,3,0,0,0.02
2014-5-27,85.1,75.3,67.1,72.1,67.1,63.1,90,76,59,29.72,29.61,6,1,0,0.00
2014-5-28,94.3,73.4,63.7,72.5,66.5,60.7,97,81,46,29.74,29.63,8,1,0,0.81
2014-5-29,88.9,71.5,59.0,72.7,64.2,56.4,93,79,59,29.82,29.72,8,2,0,0.00
2014-5-30,90.0,75.1,60.3,71.0,60.7,53.9,84,63,37,29.89,29.77,8,1,0,0.00
2014-5-31,93.4,77.5,61.3,70.7,62.9,55.8,83,62,43,29.91,29.75,6,1,0,0.00
2014-6-1,89.4,78.6,70.7,73.4,66.5,57.6,90,67,56,29.81,29.60,6,1,0,0.16
2014-6-2,88.9,77.7,72.3,70.1,67.9,64.8,86,73,53,29.65,29.56,9,3,0,0.00
2014-6-3,91.2,77.9,66.0,65.8,61.8,57.3,91,61,34,29.76,29.62,5,0,0,0.04
2014-6-4,73.0,65.5,59.7,68.5,62.5,57.1,99,91,81,29.69,29.37,7,2,0,1.50
2014-6-5,83.5,67.6,54.5,62.1,56.5,52.1,99,71,41,29.74,29.64,6,1,0,0.00
2014-6-6,88.2,73.1,55.9,65.1,58.8,49.8,83,62,44,29.75,29.67,5,0,0,0.00
2014-6-7,84.9,69.8,60.3,66.9,62.5,58.8,98,80,51,29.74,29.50,9,1,0,4.10
2014-6-8,81.0,68.7,59.0,66.0,61.5,52.0,98,79,59,29.78,29.56,11,1,0,0.00
2014-6-9,86.9,69.7,54.9,68.0,57.9,45.3,83,67,53,29.78,29.60,5,1,0,0.00
2014-6-10,66.6,62.2,58.5,62.9,60.7,56.8,99,95,82,29.62,29.48,7,2,0,1.01
2014-6-11,69.1,63.5,60.3,65.1,61.9,60.0,99,95,85,29.54,29.43,3,0,0,0.02
2014-6-12,82.0,68.5,58.5,70.3,63.0,53.7,99,84,66,29.67,29.52,5,0,0,0.00
2014-6-13,81.7,65.4,50.9,53.9,49.8,45.3,89,60,33,29.82,29.67,9,1,0,0.00
2014-6-14,82.2,68.3,53.1,56.0,52.1,48.5,86,59,36,29.85,29.66,8,1,0,0.00
2014-6-15,86.9,73.2,60.8,71.5,62.1,52.1,80,69,57,29.72,29.55,14,2,0,0.00
2014-6-16,92.1,79.4,66.2,76.1,70.8,64.0,95,76,58,29.82,29.60,6,1,0,0.00
2014-6-17,91.8,82.0,75.0,77.4,72.5,68.4,84,73,61,29.71,29.58,10,3,0,0.00
2014-6-18,91.6,79.3,68.0,79.8,73.1,65.9,95,82,67,29.75,29.63,7,1,0,0.66
2014-6-19,92.3,77.5,67.1,79.2,71.9,64.7,97,84,63,29.81,29.69,6,1,0,0.40
2014-6-20,90.7,77.7,68.4,77.2,69.6,63.8,98,78,45,29.76,29.69,4,0,0,0.01
2014-6-21,90.5,76.0,67.8,75.7,67.7,62.8,92,76,59,29.72,29.58,5,1,0,0.02
2014-6-22,90.7,74.7,64.4,76.3,68.4,62.8,97,82,58,29.67,29.56,3,0,0,0.86
2014-6-23,87.1,73.8,65.5,76.8,69.4,64.2,98,87,66,29.62,29.56,4,0,0,0.85
2014-6-24,89.8,77.1,68.2,75.5,69.1,64.7,97,78,50,29.69,29.60,3,0,0,0.12
2014-6-25,93.6,78.8,66.2,71.6,66.7,63.5,91,69,45,29.77,29.67,3,0,0,0.00
2014-6-26,90.0,74.6,64.6,75.2,69.1,63.6,97,84,62,29.81,29.68,6,1,0,0.00
2014-6-27,90.7,78.4,68.0,75.4,70.6,65.6,94,78,61,29.75,29.67,6,1,0,0.02
2014-6-28,88.9,78.3,71.1,77.0,72.0,66.8,92,82,66,29.76,29.61,7,1,0,0.00
2014-6-29,88.0,77.1,66.9,77.8,71.8,65.6,96,84,71,29.74,29.59,6,2,0,0.29
2014-6-30,89.1,75.0,65.5,80.9,71.5,64.3,96,89,76,29.67,29.36,10,2,0,2.35
2014-7-1,84.6,74.0,65.5,69.6,66.7,64.3,97,80,55,29.61,29.43,8,1,0,0.12
2014-7-2,73.4,64.3,59.0,64.9,59.7,56.9,96,86,66,29.81,29.60,5,0,0,0.00
2014-7-3,77.7,64.7,57.7,62.5,58.7,56.3,96,83,51,29.92,29.80,3,0,0,0.00
2014-7-5,78.1,68.9,63.0,65.0,62.3,58.7,95,81,55,29.90,29.81,3,0,0,0.29
2014-7-6,87.8,75.4,62.2,77.4,69.3,60.7,95,82,66,29.81,29.53,7,2,0,0.00
2014-7-7,94.8,82.1,72.7,76.2,70.8,67.7,88,70,44,29.54,29.41,7,1,0,0.00
2014-7-8,87.1,76.0,65.7,70.6,66.1,61.1,94,73,49,29.64,29.40,7,1,0,0.06
2014-7-9,84.2,72.3,61.5,64.6,60.1,56.4,92,68,44,29.83,29.63,5,0,0,0.00
2014-7-10,87.6,72.9,58.6,64.2,60.1,56.1,96,67,45,29.93,29.83,5,0,0,0.00
2014-7-11,88.3,74.7,60.1,69.3,62.9,54.2,82,68,49,29.96,29.76,4,0,0,0.00
2014-7-12,89.4,80.2,73.9,79.1,73.6,67.5,93,81,71,29.85,29.63,7,2,0,0.06
2014-7-13,93.7,77.6,68.5,73.9,70.2,66.2,95,79,48,29.74,29.65,6,0,0,0.53
2014-7-14,88.3,72.5,59.2,74.1,62.8,50.9,94,73,44,29.70,29.59,4,0,0,0.37
2014-7-15,71.8,62.4,52.5,57.2,53.9,49.5,91,75,59,29.77,29.68,9,1,0,0.00
2014-7-16,81.0,66.6,53.2,59.9,54.5,51.5,94,68,40,29.81,29.74,4,0,0,0.00
2014-7-17,89.4,70.7,56.1,62.4,58.5,52.5,91,67,38,29.86,29.79,5,0,0,0.00
2014-7-18,85.6,72.3,59.2,65.8,60.3,55.8,89,68,45,29.91,29.80,4,0,0,0.00
2014-7-19,86.2,70.5,57.6,65.6,60.8,56.2,96,74,45,29.84,29.75,5,0,0,0.00
2014-7-20,84.7,73.2,62.1,67.4,62.6,57.2,84,71,54,29.83,29.73,4,0,0,0.00
2014-7-21,89.2,76.6,63.7,73.0,67.1,59.9,88,74,58,29.85,29.76,6,0,0,0.00
2014-7-22,91.2,79.4,70.2,77.6,71.9,65.1,89,78,64,29.81,29.69,6,1,0,0.00
2014-7-23,82.4,74.1,63.0,74.3,63.9,56.7,92,72,50,29.90,29.73,10,2,0,0.00
2014-7-24,81.7,68.9,56.3,61.5,56.7,51.4,84,66,46,29.94,29.75,7,1,0,0.00
2014-7-25,75.9,65.0,60.3,66.3,59.8,54.7,95,84,71,29.85,29.62,5,0,0,0.28
2014-7-26,83.8,74.8,67.3,76.6,69.9,62.1,95,85,79,29.64,29.53,6,1,0,0.00
2014-7-27,87.3,76.4,64.6,77.1,67.3,59.8,95,75,47,29.69,29.54,6,1,0,0.00
2014-7-28,77.0,66.8,59.2,59.9,56.3,53.3,92,71,49,29.87,29.69,8,1,0,0.00
2014-7-29,84.0,69.0,55.6,61.8,58.0,52.1,88,70,46,29.87,29.77,4,0,0,0.00
2014-7-30,85.6,73.8,62.2,63.8,61.5,58.0,86,67,47,29.80,29.75,4,0,0,0.00
2014-7-31,89.4,73.0,60.4,66.6,62.4,58.0,93,72,45,29.83,29.77,1,0,0,0.00
2014-8-1,87.1,71.8,63.5,69.5,63.8,59.9,89,77,53,29.89,29.78,5,0,0,0.00
2014-8-2,88.9,72.8,59.0,69.8,64.3,57.6,96,76,52,29.93,29.84,6,0,0,0.00
2014-8-3,89.6,75.5,63.5,70.0,65.1,61.7,95,72,47,29.93,29.81,3,0,0,0.00
2014-8-4,88.7,75.6,66.0,71.0,66.1,61.7,95,74,53,29.88,29.74,5,1,0,1.25
2014-8-5,81.9,71.4,63.9,71.9,67.6,62.7,96,88,71,29.82,29.74,3,0,0,0.57
2014-8-6,79.5,70.4,64.6,72.1,67.3,63.4,96,90,75,29.84,29.75,4,0,0,0.00
2014-8-7,78.1,69.8,63.9,69.9,65.0,58.2,93,85,76,29.80,29.72,8,1,0,0.00
2014-8-8,76.6,70.5,65.5,70.2,66.0,61.8,91,86,80,29.78,29.72,7,2,0,0.00
2014-8-9,84.0,73.7,63.5,69.2,65.2,60.8,92,76,56,29.81,29.75,8,2,0,0.00
2014-8-10,86.2,73.4,64.0,74.4,68.0,62.7,96,84,68,29.80,29.68,5,0,0,0.44
2014-8-11,88.3,73.0,62.8,72.6,67.9,60.4,95,85,60,29.71,29.59,5,0,0,0.66
2014-8-12,78.8,66.7,59.2,60.7,58.0,55.6,96,75,49,29.76,29.61,7,1,0,0.00
2014-8-13,87.3,69.7,55.4,64.6,59.5,52.5,90,72,47,29.86,29.75,4,0,0,0.00
2014-8-14,85.3,70.8,62.4,66.6,62.4,56.0,89,76,52,29.84,29.76,5,1,0,0.00
2014-8-15,79.7,67.9,56.5,66.2,57.5,46.5,86,70,54,29.85,29.70,4,0,0,0.00
2014-8-16,79.3,70.7,64.0,70.7,66.5,61.6,95,87,74,29.70,29.62,1,0,0,0.00
2014-8-17,77.4,69.8,65.7,72.5,67.7,64.8,97,93,85,29.70,29.62,4,1,0,0.18
2014-8-18,85.1,72.4,63.5,73.2,67.9,62.6,98,87,67,29.69,29.53,5,0,0,0.00
2014-8-19,85.1,74.0,66.6,73.8,70.0,65.4,97,88,67,29.58,29.48,5,0,0,0.82
2014-8-20,81.5,72.8,64.9,73.5,69.5,64.0,98,90,75,29.70,29.57,5,0,0,0.02
2014-8-21,93.4,80.4,71.2,80.2,74.7,69.4,94,84,65,29.71,29.63,4,0,0,0.00
2014-8-22,89.4,77.4,71.4,80.1,74.3,70.2,98,91,70,29.74,29.60,5,0,0,2.37
2014-8-23,81.9,75.0,69.8,77.9,72.7,68.6,98,93,81,29.74,29.65,8,1,0,1.05
2014-8-24,97.5,81.1,68.7,82.4,75.6,67.8,98,85,60,29.72,29.66,6,0,0,0.00
2014-8-25,99.9,82.7,74.1,80.8,76.0,68.6,96,82,50,29.79,29.70,10,1,0,0.00
2014-8-26,90.9,79.2,72.7,79.7,73.3,68.6,90,82,70,29.85,29.75,4,0,0,0.00
2014-8-27,86.4,76.1,69.3,74.1,69.5,66.0,91,81,63,29.89,29.79,6,0,0,0.00
2014-8-28,84.7,72.4,64.6,74.6,66.8,60.3,97,83,66,29.85,29.73,7,1,0,0.68
2014-8-29,88.7,74.3,68.2,77.2,70.9,66.3,97,90,67,29.74,29.58,10,1,0,0.58
2014-8-30,90.9,75.6,69.8,75.0,71.1,68.6,97,87,59,29.67,29.59,4,1,0,0.00
2014-8-31,88.2,76.6,68.7,76.7,71.9,66.6,97,86,65,29.70,29.58,6,0,0,0.00
2014-9-1,84.0,75.6,68.4,71.1,69.2,65.7,92,81,63,29.63,29.45,6,1,0,0.00
2014-9-2,90.9,74.1,67.3,73.0,67.6,63.6,97,82,51,29.74,29.60,5,0,0,0.10
2014-9-3,86.7,74.3,62.8,72.2,67.2,61.6,97,80,54,29.79,29.67,5,0,0,0.00
2014-9-4,89.6,78.4,66.7,79.3,72.8,65.5,96,84,70,29.77,29.63,8,1,0,0.52
2014-9-5,91.6,75.7,60.8,78.6,70.1,58.2,92,83,66,29.88,29.67,6,1,0,0.25
2014-9-6,75.7,63.6,56.3,59.7,56.0,52.7,93,78,50,29.97,29.85,5,1,0,0.00
2014-9-7,84.0,65.3,54.3,59.8,54.9,49.3,91,72,41,29.99,29.86,3,0,0,0.00
2014-9-8,81.5,68.1,55.8,60.7,56.6,52.3,95,68,48,29.89,29.68,5,0,0,0.00
2014-9-9,78.3,66.9,61.3,70.5,63.7,58.2,97,90,69,29.78,29.54,8,1,0,0.66
2014-9-10,78.3,70.4,59.4,75.3,68.1,56.5,98,93,77,29.65,29.29,9,2,0,2.60
2014-9-11,59.2,53.4,50.0,56.3,49.3,46.3,92,86,75,30.05,29.66,7,2,0,0.00
2014-9-12,55.0,49.2,42.8,49.3,46.1,41.5,95,89,79,30.12,30.02,7,1,0,0.00
2014-9-13,62.2,47.8,38.5,46.0,42.0,38.2,99,82,53,30.17,30.06,4,0,0,0.00
2014-9-14,71.6,54.1,42.1,49.9,45.7,41.2,99,76,44,30.09,29.93,4,0,0,0.00
2014-9-15,58.1,55.4,52.2,57.3,53.6,48.1,97,94,80,29.96,29.81,5,0,0,0.37
2014-9-16,69.6,53.7,44.4,52.9,47.7,44.1,99,82,47,30.01,29.85,4,0,0,0.00
2014-9-17,71.8,57.6,47.1,58.7,52.5,46.3,99,85,58,29.85,29.70,3,0,0,0.00
2014-9-18,76.3,60.0,48.7,57.9,52.8,48.4,99,80,44,29.89,29.78,6,1,0,0.00
2014-9-19,78.8,63.7,49.6,57.7,54.7,49.1,99,75,46,29.90,29.71,5,1,0,0.00
2014-9-20,82.4,69.8,60.6,72.5,65.0,56.7,93,85,72,29.72,29.55,6,2,0,0.00
2014-9-21,69.6,60.9,52.3,67.5,55.1,50.6,95,82,62,29.92,29.56,5,1,0,0.00
2014-9-22,70.5,54.9,43.9,50.6,47.4,43.4,99,78,46,30.09,29.91,6,0,0,0.00
2014-9-23,76.6,60.5,48.2,59.0,49.9,44.8,95,70,43,30.12,29.99,3,0,0,0.00
2014-9-24,78.4,63.2,52.7,56.1,51.6,48.4,94,68,38,30.10,29.97,4,0,0,0.00
2014-9-25,81.3,67.1,58.1,63.2,56.5,50.0,86,70,48,30.04,29.92,3,0,0,0.00
2014-9-26,84.7,68.1,54.9,64.7,58.9,53.2,96,74,50,30.01,29.90,3,0,0,0.00
2014-9-27,86.7,69.1,57.4,64.2,59.0,55.4,94,72,42,29.99,29.85,4,0,0,0.00
2014-9-28,82.9,68.2,56.3,65.8,58.3,54.6,98,74,44,29.92,29.79,2,0,0,0.00
2014-9-29,87.4,70.0,57.7,64.0,59.9,55.7,97,73,45,29.82,29.67,3,0,0,0.00
2014-9-30,67.6,59.0,52.3,60.2,53.9,49.2,93,84,67,29.79,29.69,10,2,0,0.00
2014-10-1,79.7,62.7,49.3,66.8,57.7,47.1,93,85,62,29.74,29.57,7,1,0,0.07
2014-10-2,69.6,65.7,63.5,67.8,64.4,63.1,99,96,91,29.62,29.33,4,0,0,0.42
2014-10-3,63.3,53.1,43.3,63.0,48.3,33.1,99,84,66,29.69,29.29,9,2,0,0.28
2014-10-4,52.2,43.7,36.7,38.3,34.2,29.9,79,69,57,29.63,29.56,7,2,0,0.00
2014-10-5,61.3,48.4,37.6,45.7,40.0,34.1,90,74,49,29.58,29.40,5,0,0,0.00
2014-10-6,64.4,54.4,48.7,48.9,43.4,37.1,93,69,37,29.47,29.35,6,1,0,0.00
2014-10-7,71.6,57.9,49.8,54.8,49.2,43.0,93,74,48,29.68,29.41,6,1,0,0.00
2014-10-8,68.4,54.2,44.2,47.7,42.8,38.7,93,69,35,29.86,29.67,3,0,0,0.00
2014-10-9,62.8,53.6,49.6,54.2,50.1,45.4,98,89,64,29.91,29.82,4,0,0,0.38
2014-10-10,60.6,51.8,43.7,46.0,43.5,42.1,95,74,54,29.94,29.86,9,1,0,0.00
2014-10-11,62.4,47.5,39.0,44.7,40.6,37.5,99,79,43,30.03,29.89,5,0,0,0.00
2014-10-12,55.6,47.9,37.6,55.3,46.2,36.6,99,94,82,29.89,29.61,6,0,0,0.01
2014-10-13,65.8,60.3,55.6,65.5,60.0,55.3,99,99,98,29.62,29.20,8,1,0,1.03
2014-10-14,64.0,58.3,52.7,62.2,58.0,52.4,99,99,94,29.40,29.17,7,1,0,0.65
2014-10-15,52.5,50.7,49.5,52.2,50.4,49.2,99,99,99,29.62,29.40,4,1,0,0.06
2014-10-16,65.8,56.0,50.5,58.5,53.0,50.2,99,90,72,29.65,29.40,6,0,0,0.01
2014-10-17,59.9,54.2,47.7,51.8,49.1,46.9,97,83,71,29.70,29.38,8,1,0,0.00
2014-10-18,54.3,48.3,40.6,48.6,45.4,40.3,99,90,77,29.99,29.70,4,0,0,0.00
2014-10-19,61.7,48.9,37.0,47.4,43.2,36.7,99,82,54,30.01,29.70,5,1,0,0.00
2014-10-20,68.0,55.1,47.7,50.2,47.5,45.1,97,77,49,29.78,29.62,8,1,0,0.00
2014-10-21,59.7,49.0,41.2,45.4,42.0,39.1,94,78,53,30.03,29.77,6,1,0,0.00
2014-10-22,61.5,45.6,34.9,43.2,39.3,34.6,99,81,49,30.13,29.98,4,0,0,0.01
2014-10-23,60.6,50.7,39.6,48.4,43.8,37.7,93,78,63,30.00,29.82,5,1,0,0.00
2014-10-24,65.8,57.1,46.4,56.6,52.0,46.1,99,84,67,29.86,29.69,5,1,0,0.00
2014-10-25,74.7,60.3,52.3,57.9,49.2,39.2,99,71,32,29.79,29.67,5,0,0,0.00
2014-10-26,70.5,57.1,45.7,45.6,36.3,33.1,65,48,27,29.81,29.53,8,1,0,0.00
2014-10-27,76.5,68.1,61.7,63.3,59.8,46.5,90,76,56,29.53,29.31,10,4,0,0.00
2014-10-28,65.8,54.4,43.2,62.5,42.6,36.2,90,66,41,29.81,29.43,8,2,0,0.01
2014-10-29,52.2,42.9,36.9,37.6,35.2,32.4,90,75,54,29.93,29.80,9,1,0,0.00
2014-10-30,48.7,42.1,36.1,44.1,38.7,33.0,99,88,70,29.92,29.81,4,0,0,0.06
2014-10-31,44.1,38.3,29.3,42.8,28.4,20.9,99,69,48,30.19,29.85,12,4,0,0.01
2014-11-1,46.6,34.0,24.4,29.9,25.2,20.0,85,71,51,30.26,30.15,6,1,0,0.00
2014-11-2,50.9,40.8,30.4,31.3,27.8,24.4,88,62,38,30.19,29.92,9,2,0,0.00
2014-11-3,68.0,55.3,42.3,48.0,38.4,28.9,61,53,46,29.92,29.72,11,5,0,0.00
2014-11-4,59.0,49.2,41.9,52.4,43.2,38.9,94,80,51,29.91,29.69,9,2,0,0.02
2014-11-5,63.5,50.0,38.3,44.1,38.6,31.7,97,70,31,29.94,29.67,9,3,0,0.02
2014-11-6,46.9,40.9,29.1,46.1,36.9,27.6,97,86,69,30.04,29.61,10,2,0,0.06
2014-11-7,48.0,37.6,25.9,34.2,30.4,25.1,97,77,57,30.03,29.55,7,2,0,0.00
2014-11-8,50.4,42.5,33.1,40.4,32.3,26.1,83,68,49,29.80,29.51,10,3,0,0.00
2014-11-9,57.7,44.8,31.3,37.3,32.7,26.4,84,64,44,29.78,29.52,9,2,0,0.00
2014-11-10,66.7,54.7,43.2,48.5,43.1,36.7,84,66,51,29.53,29.22,14,4,0,0.00
2014-11-11,57.0,37.1,28.2,46.9,32.6,22.5,98,84,69,30.01,29.33,9,3,0,0.08
2014-11-12,30.4,26.1,22.8,22.5,17.8,13.9,80,71,60,30.16,30.01,9,2,0,0.00
2014-11-13,30.9,23.4,17.2,22.3,18.2,14.3,96,81,60,30.17,30.12,7,1,0,0.00
2014-11-14,27.9,19.7,14.5,18.3,14.6,12.2,93,81,62,30.22,30.15,4,0,0,0.00
2014-11-15,31.8,25.2,16.7,21.4,16.9,13.8,88,71,53,30.18,29.99,4,0,0,0.00
2014-11-16,31.3,26.7,15.3,27.2,23.8,12.9,94,89,74,29.98,29.74,6,1,0,0.00
2014-11-17,22.1,15.1,10.2,13.0,8.5,4.4,92,75,54,29.90,29.72,10,3,0,0.00
2014-11-18,20.3,14.7,8.8,11.4,6.6,4.7,84,70,56,29.99,29.81,6,3,0,0.00
2014-11-19,30.2,24.8,20.3,21.3,16.3,11.8,78,70,59,29.89,29.56,10,4,0,0.00
2014-11-20,32.4,22.0,13.6,16.8,12.6,8.6,83,68,43,30.14,29.87,6,2,0,0.00
2014-11-21,36.5,24.6,10.8,30.6,11.8,6.7,93,61,34,30.24,29.93,9,2,0,0.00
2014-11-22,56.1,46.3,32.9,51.1,43.4,30.2,96,90,83,29.93,29.57,11,6,0,0.01
2014-11-23,52.9,50.0,48.6,50.6,48.4,45.5,99,94,85,29.57,28.89,8,2,0,0.35
2014-11-24,48.9,32.6,26.8,48.6,32.2,25.8,99,98,95,29.68,28.86,9,3,0,0.37
2014-11-25,30.0,22.9,18.3,26.1,20.7,17.0,99,91,79,29.97,29.68,8,1,0,0.00
2014-11-26,31.5,24.6,18.9,28.6,23.5,18.7,99,95,89,30.03,29.83,7,2,0,0.00
2014-11-27,27.1,20.2,10.0,24.9,17.8,8.1,97,90,76,30.26,30.02,6,1,0,0.00
2014-11-28,37.2,28.1,13.6,34.0,24.1,10.5,91,85,79,30.19,29.59,9,3,0,0.08
2014-11-29,54.5,45.1,36.3,49.9,42.6,34.1,99,91,82,29.58,29.36,10,6,0,0.01
2014-11-30,50.9,38.2,23.4,49.8,37.0,20.1,99,95,84,30.12,29.38,7,3,0,0.00
2014-12-1,24.1,20.2,14.5,19.9,10.8,5.9,87,67,48,30.45,30.13,8,3,0,0.00
2014-12-2,30.6,23.2,13.8,25.4,19.6,9.9,98,86,80,30.31,29.88,6,2,0,0.00
2014-12-3,39.4,28.6,23.2,24.1,20.9,17.1,94,75,44,30.18,29.89,6,1,0,0.00
2014-12-4,33.4,29.5,24.4,31.5,22.8,16.2,98,76,64,30.16,29.99,7,2,0,0.00
2014-12-5,39.4,35.2,31.8,38.4,34.8,31.5,99,98,93,30.01,29.89,4,1,0,0.01
2014-12-6,38.3,32.8,27.7,35.3,31.0,26.5,99,93,74,30.41,30.01,7,1,0,0.00
2014-12-7,36.9,30.2,24.1,31.5,28.1,23.9,99,92,78,30.41,30.04,5,1,0,0.00
2014-12-8,39.2,34.7,29.8,38.9,34.1,28.5,99,98,93,30.03,29.80,10,3,0,0.17
2014-12-9,35.8,31.9,29.5,32.9,30.6,28.8,98,95,89,30.18,29.94,9,2,0,0.00
2014-12-10,34.0,30.4,27.3,30.1,26.6,23.6,96,86,75,30.20,30.07,4,0,0,0.00
2014-12-11,33.3,26.6,22.5,26.2,23.6,22.0,99,89,75,30.12,30.04,4,0,0,0.00
2014-12-12,36.7,32.0,22.8,36.2,30.8,22.6,99,95,90,30.14,30.03,6,1,0,0.00
2014-12-13,50.2,43.7,36.0,46.7,42.1,35.5,98,94,86,30.04,29.86,6,1,0,0.00
2014-12-14,49.5,45.7,43.2,49.2,45.4,42.7,99,99,97,29.87,29.74,7,2,0,0.00
2014-12-15,47.3,46.0,44.8,47.0,45.7,44.5,99,99,99,29.73,29.39,8,2,0,0.18
2014-12-16,44.6,34.1,21.9,44.3,33.6,20.7,99,98,94,30.03,29.40,10,3,0,0.16
2014-12-17,29.3,22.2,17.6,23.1,20.0,17.3,99,92,77,30.12,30.03,5,1,0,0.00
2014-12-18,30.7,21.3,15.4,24.2,19.3,15.2,99,93,72,30.10,30.02,3,0,0,0.00
2014-12-19,34.0,23.4,15.6,26.3,21.4,15.4,99,93,72,30.13,30.04,3,0,0,0.00
2014-12-20,36.5,30.4,23.2,31.2,28.1,22.9,99,91,78,30.06,29.99,2,0,0,0.00
2014-12-21,38.5,35.1,33.3,34.6,32.7,31.3,96,91,84,30.00,29.71,5,1,0,0.00
2014-12-22,45.7,38.5,34.2,45.4,37.5,32.4,99,96,89,29.72,29.24,6,2,0,0.59
2014-12-23,49.1,42.4,33.1,46.1,39.0,32.8,99,89,67,29.54,29.23,9,3,0,0.00
2014-12-24,36.9,35.1,34.2,36.2,34.7,33.7,99,99,97,29.53,29.33,4,0,0,0.01
2014-12-25,47.5,38.9,33.4,37.9,34.8,31.1,98,86,68,29.76,29.52,8,4,0,0.00
2014-12-26,52.5,44.1,37.0,45.5,40.8,35.7,95,88,73,29.81,29.74,9,3,0,0.00
2014-12-27,47.7,38.9,28.2,47.2,36.8,25.4,98,92,84,29.95,29.73,10,3,0,0.00
2014-12-28,34.5,24.8,19.0,25.1,21.0,18.8,99,86,62,30.05,29.94,5,0,0,0.00
2014-12-29,34.7,25.4,19.4,26.7,22.2,14.7,99,88,69,30.29,30.03,6,1,0,0.00
2014-12-30,20.3,13.7,7.7,15.2,6.4,1.2,91,73,49,30.53,30.30,7,2,0,0.00
2014-12-31,21.9,12.3,2.3,6.7,2.3,-1.8,85,65,47,30.47,30.03,11,3,0,0.00
2015-1-1,30.4,22.4,14.7,17.8,12.6,6.2,72,66,56,30.02,29.83,9,4,0,0.00
2015-1-2,38.5,28.8,19.0,31.2,20.7,15.0,94,72,53,30.10,29.87,3,0,0,0.00